sensor_id;sensor_type;location;lat;lon;timestamp;P1;durP1;ratioP1;P2;durP2;ratioP2
27357;SDS011;14831;50.474;7.616;2022-10-15T00:01:53;0.7;;;0.7;;
27357;SDS011;14831;50.474;7.616;2022-10-15T00:06:53;0.7;;;0.7;;
27357;SDS011;14831;50.474;7.616;2022-10-15T00:11:53;0.7;;;0.7;;
27357;SDS011;14831;50.474;7.616;2022-10-15T00:16:53;0.7;;;0.7;;
27357;SDS011;14831;50.474;7.616;2022-10-15T00:21:53;0.7;;;0.7;;
27357;SDS011;14831;50.474;7.616;2022-10-15T00:26:53;0.7;;;0.7;;
27357;SDS011;14831;50.474;7.616;2022-10-15T00:31:53;0.7;;;0.7;;
27357;SDS011;14831;50.474;7.616;2022-10-15T00:36:54;0.7;;;0.7;;
27357;SDS011;14831;50.474;7.616;2022-10-15T00:41:53;0.7;;;0.7;;
27357;SDS011;14831;50.474;7.616;2022-10-15T00:46:55;0.7;;;0.7;;
27357;SDS011;14831;50.474;7.616;2022-10-15T00:51:56;0.7;;;0.7;;
27357;SDS011;14831;50.474;7.616;2022-10-15T00:56:54;0.7;;;0.7;;
27357;SDS011;14831;50.474;7.616;2022-10-15T01:01:53;0.7;;;0.7;;
27357;SDS011;14831;50.474;7.616;2022-10-15T01:06:53;0.7;;;0.7;;
27357;SDS011;14831;50.474;7.616;2022-10-15T01:11:54;0.7;;;0.7;;
27357;SDS011;14831;50.474;7.616;2022-10-15T01:16:56;0.7;;;0.7;;
27357;SDS011;14831;50.474;7.616;2022-10-15T01:22:00;0.7;;;0.5;;
27357;SDS011;14831;50.474;7.616;2022-10-15T01:27:10;0.7;;;0.5;;
27357;SDS011;14831;50.474;7.616;2022-10-15T01:31:58;0.7;;;0.5;;
27357;SDS011;14831;50.474;7.616;2022-10-15T01:36:56;0.7;;;0.5;;
27357;SDS011;14831;50.474;7.616;2022-10-15T01:41:55;0.7;;;0.5;;
27357;SDS011;14831;50.474;7.616;2022-10-15T01:46:56;0.7;;;0.5;;
27357;SDS011;14831;50.474;7.616;2022-10-15T01:51:55;1.0;;;0.6;;
27357;SDS011;14831;50.474;7.616;2022-10-15T01:56:54;1.0;;;0.6;;
27357;SDS011;14831;50.474;7.616;2022-10-15T02:01:53;1.0;;;0.6;;
27357;SDS011;14831;50.474;7.616;2022-10-15T02:06:57;1.0;;;0.6;;
27357;SDS011;14831;50.474;7.616;2022-10-15T02:12:01;1.0;;;0.6;;
27357;SDS011;14831;50.474;7.616;2022-10-15T02:16:57;1.0;;;0.6;;
27357;SDS011;14831;50.474;7.616;2022-10-15T02:22:00;1.7;;;0.6;;
27357;SDS011;14831;50.474;7.616;2022-10-15T02:26:56;1.7;;;0.6;;
27357;SDS011;14831;50.474;7.616;2022-10-15T02:31:55;1.7;;;0.6;;
27357;SDS011;14831;50.474;7.616;2022-10-15T02:36:54;1.7;;;0.6;;
27357;SDS011;14831;50.474;7.616;2022-10-15T02:41:53;1.7;;;0.6;;
27357;SDS011;14831;50.474;7.616;2022-10-15T02:46:53;1.7;;;0.6;;
27357;SDS011;14831;50.474;7.616;2022-10-15T02:51:53;0.6;;;0.5;;
27357;SDS011;14831;50.474;7.616;2022-10-15T02:56:53;0.6;;;0.5;;
27357;SDS011;14831;50.474;7.616;2022-10-15T03:01:53;0.6;;;0.5;;
27357;SDS011;14831;50.474;7.616;2022-10-15T03:06:53;0.6;;;0.5;;
27357;SDS011;14831;50.474;7.616;2022-10-15T03:11:53;0.6;;;0.5;;
27357;SDS011;14831;50.474;7.616;2022-10-15T03:16:53;0.6;;;0.5;;
27357;SDS011;14831;50.474;7.616;2022-10-15T03:21:53;0.5;;;0.5;;
27357;SDS011;14831;50.474;7.616;2022-10-15T03:26:54;0.5;;;0.5;;
27357;SDS011;14831;50.474;7.616;2022-10-15T03:31:53;0.5;;;0.5;;
27357;SDS011;14831;50.474;7.616;2022-10-15T03:36:53;0.5;;;0.5;;
27357;SDS011;14831;50.474;7.616;2022-10-15T03:41:53;0.5;;;0.5;;
27357;SDS011;14831;50.474;7.616;2022-10-15T03:46:53;0.5;;;0.5;;
27357;SDS011;14831;50.474;7.616;2022-10-15T03:51:53;0.5;;;0.5;;
27357;SDS011;14831;50.474;7.616;2022-10-15T03:56:53;0.5;;;0.5;;
27357;SDS011;14831;50.474;7.616;2022-10-15T04:01:53;0.5;;;0.5;;
27357;SDS011;14831;50.474;7.616;2022-10-15T04:06:53;0.5;;;0.5;;
27357;SDS011;14831;50.474;7.616;2022-10-15T04:11:53;0.5;;;0.5;;
27357;SDS011;14831;50.474;7.616;2022-10-15T04:16:54;0.5;;;0.5;;
27357;SDS011;14831;50.474;7.616;2022-10-15T04:21:53;0.5;;;0.5;;
27357;SDS011;14831;50.474;7.616;2022-10-15T04:26:53;0.5;;;0.5;;
27357;SDS011;14831;50.474;7.616;2022-10-15T04:31:53;0.5;;;0.5;;
27357;SDS011;14831;50.474;7.616;2022-10-15T04:36:53;0.5;;;0.5;;
27357;SDS011;14831;50.474;7.616;2022-10-15T04:41:53;0.5;;;0.5;;
27357;SDS011;14831;50.474;7.616;2022-10-15T04:46:53;0.5;;;0.5;;
27357;SDS011;14831;50.474;7.616;2022-10-15T04:51:53;0.4;;;0.4;;
27357;SDS011;14831;50.474;7.616;2022-10-15T04:56:53;0.4;;;0.4;;
27357;SDS011;14831;50.474;7.616;2022-10-15T05:01:53;0.4;;;0.4;;
27357;SDS011;14831;50.474;7.616;2022-10-15T05:06:53;0.4;;;0.4;;
27357;SDS011;14831;50.474;7.616;2022-10-15T05:11:53;0.4;;;0.4;;
27357;SDS011;14831;50.474;7.616;2022-10-15T05:16:53;0.4;;;0.4;;
27357;SDS011;14831;50.474;7.616;2022-10-15T05:21:53;0.4;;;0.4;;
27357;SDS011;14831;50.474;7.616;2022-10-15T05:26:53;0.4;;;0.4;;
27357;SDS011;14831;50.474;7.616;2022-10-15T05:31:53;0.4;;;0.4;;
27357;SDS011;14831;50.474;7.616;2022-10-15T05:36:53;0.4;;;0.4;;
27357;SDS011;14831;50.474;7.616;2022-10-15T05:41:53;0.4;;;0.4;;
27357;SDS011;14831;50.474;7.616;2022-10-15T05:46:53;0.4;;;0.4;;
27357;SDS011;14831;50.474;7.616;2022-10-15T05:51:53;0.4;;;0.4;;
27357;SDS011;14831;50.474;7.616;2022-10-15T05:56:53;0.4;;;0.4;;
27357;SDS011;14831;50.474;7.616;2022-10-15T06:01:53;0.4;;;0.4;;
27357;SDS011;14831;50.474;7.616;2022-10-15T06:06:53;0.4;;;0.4;;
27357;SDS011;14831;50.474;7.616;2022-10-15T06:11:53;0.4;;;0.4;;
27357;SDS011;14831;50.474;7.616;2022-10-15T06:16:53;0.4;;;0.4;;
27357;SDS011;14831;50.474;7.616;2022-10-15T06:21:53;0.3;;;0.3;;
27357;SDS011;14831;50.474;7.616;2022-10-15T06:26:53;0.3;;;0.3;;
27357;SDS011;14831;50.474;7.616;2022-10-15T06:31:53;0.3;;;0.3;;
27357;SDS011;14831;50.474;7.616;2022-10-15T06:36:53;0.3;;;0.3;;
27357;SDS011;14831;50.474;7.616;2022-10-15T06:41:53;0.3;;;0.3;;
27357;SDS011;14831;50.474;7.616;2022-10-15T06:46:53;0.3;;;0.3;;
27357;SDS011;14831;50.474;7.616;2022-10-15T06:51:53;0.4;;;0.4;;
27357;SDS011;14831;50.474;7.616;2022-10-15T06:56:53;0.4;;;0.4;;
27357;SDS011;14831;50.474;7.616;2022-10-15T07:01:53;0.4;;;0.4;;
27357;SDS011;14831;50.474;7.616;2022-10-15T07:06:53;0.4;;;0.4;;
27357;SDS011;14831;50.474;7.616;2022-10-15T07:11:53;0.4;;;0.4;;
27357;SDS011;14831;50.474;7.616;2022-10-15T07:16:53;0.4;;;0.4;;
27357;SDS011;14831;50.474;7.616;2022-10-15T07:21:53;0.4;;;0.4;;
27357;SDS011;14831;50.474;7.616;2022-10-15T07:26:53;0.4;;;0.4;;
27357;SDS011;14831;50.474;7.616;2022-10-15T07:31:53;0.4;;;0.4;;
27357;SDS011;14831;50.474;7.616;2022-10-15T07:36:53;0.4;;;0.4;;
27357;SDS011;14831;50.474;7.616;2022-10-15T07:41:53;0.4;;;0.4;;
27357;SDS011;14831;50.474;7.616;2022-10-15T07:46:53;0.4;;;0.4;;
27357;SDS011;14831;50.474;7.616;2022-10-15T07:51:53;0.9;;;0.5;;
27357;SDS011;14831;50.474;7.616;2022-10-15T07:56:53;0.9;;;0.5;;
27357;SDS011;14831;50.474;7.616;2022-10-15T08:01:53;0.9;;;0.5;;
27357;SDS011;14831;50.474;7.616;2022-10-15T08:06:53;0.9;;;0.5;;
27357;SDS011;14831;50.474;7.616;2022-10-15T08:11:53;0.9;;;0.5;;
27357;SDS011;14831;50.474;7.616;2022-10-15T08:16:53;0.9;;;0.5;;
27357;SDS011;14831;50.474;7.616;2022-10-15T08:21:53;0.5;;;0.4;;
27357;SDS011;14831;50.474;7.616;2022-10-15T08:26:53;0.5;;;0.4;;
27357;SDS011;14831;50.474;7.616;2022-10-15T08:31:53;0.5;;;0.4;;
27357;SDS011;14831;50.474;7.616;2022-10-15T08:36:53;0.5;;;0.4;;
27357;SDS011;14831;50.474;7.616;2022-10-15T08:41:54;0.5;;;0.4;;
27357;SDS011;14831;50.474;7.616;2022-10-15T08:46:58;0.5;;;0.4;;
27357;SDS011;14831;50.474;7.616;2022-10-15T08:51:57;0.4;;;0.4;;
27357;SDS011;14831;50.474;7.616;2022-10-15T08:57:06;0.4;;;0.4;;
27357;SDS011;14831;50.474;7.616;2022-10-15T09:01:57;0.4;;;0.4;;
27357;SDS011;14831;50.474;7.616;2022-10-15T09:06:58;0.4;;;0.4;;
27357;SDS011;14831;50.474;7.616;2022-10-15T09:12:00;0.4;;;0.4;;
27357;SDS011;14831;50.474;7.616;2022-10-15T09:16:53;0.4;;;0.4;;
27357;SDS011;14831;50.474;7.616;2022-10-15T09:21:53;0.4;;;0.3;;
27357;SDS011;14831;50.474;7.616;2022-10-15T09:27:02;0.4;;;0.3;;
27357;SDS011;14831;50.474;7.616;2022-10-15T09:31:59;0.4;;;0.3;;
27357;SDS011;14831;50.474;7.616;2022-10-15T09:36:56;0.4;;;0.3;;
27357;SDS011;14831;50.474;7.616;2022-10-15T09:42:01;0.4;;;0.3;;
27357;SDS011;14831;50.474;7.616;2022-10-15T09:46:53;0.4;;;0.3;;
27357;SDS011;14831;50.474;7.616;2022-10-15T09:51:58;0.4;;;0.4;;
27357;SDS011;14831;50.474;7.616;2022-10-15T09:56:55;0.4;;;0.4;;
27357;SDS011;14831;50.474;7.616;2022-10-15T10:01:58;0.4;;;0.4;;
27357;SDS011;14831;50.474;7.616;2022-10-15T10:06:55;0.4;;;0.4;;
27357;SDS011;14831;50.474;7.616;2022-10-15T10:11:56;0.4;;;0.4;;
27357;SDS011;14831;50.474;7.616;2022-10-15T10:17:15;0.4;;;0.4;;
27357;SDS011;14831;50.474;7.616;2022-10-15T10:22:05;0.6;;;0.6;;
27357;SDS011;14831;50.474;7.616;2022-10-15T10:26:53;0.6;;;0.6;;
27357;SDS011;14831;50.474;7.616;2022-10-15T10:31:53;0.6;;;0.6;;
27357;SDS011;14831;50.474;7.616;2022-10-15T10:36:53;0.6;;;0.6;;
27357;SDS011;14831;50.474;7.616;2022-10-15T10:41:55;0.6;;;0.6;;
27357;SDS011;14831;50.474;7.616;2022-10-15T10:47:09;0.6;;;0.6;;
27357;SDS011;14831;50.474;7.616;2022-10-15T10:51:53;0.6;;;0.6;;
27357;SDS011;14831;50.474;7.616;2022-10-15T10:56:55;0.6;;;0.6;;
27357;SDS011;14831;50.474;7.616;2022-10-15T11:01:53;0.6;;;0.6;;
27357;SDS011;14831;50.474;7.616;2022-10-15T11:06:59;0.6;;;0.6;;
27357;SDS011;14831;50.474;7.616;2022-10-15T11:12:06;0.6;;;0.6;;
27357;SDS011;14831;50.474;7.616;2022-10-15T11:17:02;0.6;;;0.6;;
27357;SDS011;14831;50.474;7.616;2022-10-15T11:22:06;0.6;;;0.6;;
27357;SDS011;14831;50.474;7.616;2022-10-15T11:27:07;0.6;;;0.6;;
27357;SDS011;14831;50.474;7.616;2022-10-15T11:31:58;0.6;;;0.6;;
27357;SDS011;14831;50.474;7.616;2022-10-15T11:37:06;0.6;;;0.6;;
27357;SDS011;14831;50.474;7.616;2022-10-15T11:42:00;0.6;;;0.6;;
27357;SDS011;14831;50.474;7.616;2022-10-15T11:47:05;0.6;;;0.6;;
27357;SDS011;14831;50.474;7.616;2022-10-15T11:52:36;0.6;;;0.6;;
27357;SDS011;14831;50.474;7.616;2022-10-15T11:56:55;0.6;;;0.6;;
27357;SDS011;14831;50.474;7.616;2022-10-15T12:01:58;0.6;;;0.6;;
27357;SDS011;14831;50.474;7.616;2022-10-15T12:06:56;0.6;;;0.6;;
27357;SDS011;14831;50.474;7.616;2022-10-15T12:11:59;0.6;;;0.6;;
27357;SDS011;14831;50.474;7.616;2022-10-15T12:17:00;0.6;;;0.6;;
27357;SDS011;14831;50.474;7.616;2022-10-15T12:22:09;1.0;;;0.7;;
27357;SDS011;14831;50.474;7.616;2022-10-15T12:26:53;1.0;;;0.7;;
27357;SDS011;14831;50.474;7.616;2022-10-15T12:31:53;1.0;;;0.7;;
27357;SDS011;14831;50.474;7.616;2022-10-15T12:37:03;1.0;;;0.7;;
27357;SDS011;14831;50.474;7.616;2022-10-15T12:41:53;1.0;;;0.7;;
27357;SDS011;14831;50.474;7.616;2022-10-15T12:46:54;1.0;;;0.7;;
27357;SDS011;14831;50.474;7.616;2022-10-15T12:51:53;0.7;;;0.6;;
27357;SDS011;14831;50.474;7.616;2022-10-15T12:56:53;0.7;;;0.6;;
27357;SDS011;14831;50.474;7.616;2022-10-15T13:01:53;0.7;;;0.6;;
27357;SDS011;14831;50.474;7.616;2022-10-15T13:07:01;0.7;;;0.6;;
27357;SDS011;14831;50.474;7.616;2022-10-15T13:11:55;0.7;;;0.6;;
27357;SDS011;14831;50.474;7.616;2022-10-15T13:16:54;0.7;;;0.6;;
27357;SDS011;14831;50.474;7.616;2022-10-15T13:21:54;0.8;;;0.6;;
27357;SDS011;14831;50.474;7.616;2022-10-15T13:26:55;0.8;;;0.6;;
27357;SDS011;14831;50.474;7.616;2022-10-15T13:31:54;0.8;;;0.6;;
27357;SDS011;14831;50.474;7.616;2022-10-15T13:36:55;0.8;;;0.6;;
27357;SDS011;14831;50.474;7.616;2022-10-15T13:42:05;0.8;;;0.6;;
27357;SDS011;14831;50.474;7.616;2022-10-15T13:46:53;0.8;;;0.6;;
27357;SDS011;14831;50.474;7.616;2022-10-15T13:51:53;1.0;;;0.7;;
27357;SDS011;14831;50.474;7.616;2022-10-15T13:56:54;1.0;;;0.7;;
27357;SDS011;14831;50.474;7.616;2022-10-15T14:01:55;1.0;;;0.7;;
27357;SDS011;14831;50.474;7.616;2022-10-15T14:06:55;1.0;;;0.7;;
27357;SDS011;14831;50.474;7.616;2022-10-15T14:11:53;1.0;;;0.7;;
27357;SDS011;14831;50.474;7.616;2022-10-15T14:16:54;1.0;;;0.7;;
27357;SDS011;14831;50.474;7.616;2022-10-15T14:21:53;2.6;;;0.8;;
27357;SDS011;14831;50.474;7.616;2022-10-15T14:26:53;2.6;;;0.8;;
27357;SDS011;14831;50.474;7.616;2022-10-15T14:31:53;2.6;;;0.8;;
27357;SDS011;14831;50.474;7.616;2022-10-15T14:36:53;2.6;;;0.8;;
27357;SDS011;14831;50.474;7.616;2022-10-15T14:41:54;2.6;;;0.8;;
27357;SDS011;14831;50.474;7.616;2022-10-15T14:47:00;2.6;;;0.8;;
27357;SDS011;14831;50.474;7.616;2022-10-15T14:51:55;0.9;;;0.6;;
27357;SDS011;14831;50.474;7.616;2022-10-15T14:56:53;0.9;;;0.6;;
27357;SDS011;14831;50.474;7.616;2022-10-15T15:01:55;0.9;;;0.6;;
27357;SDS011;14831;50.474;7.616;2022-10-15T15:06:53;0.9;;;0.6;;
27357;SDS011;14831;50.474;7.616;2022-10-15T15:11:53;0.9;;;0.6;;
27357;SDS011;14831;50.474;7.616;2022-10-15T15:16:53;0.9;;;0.6;;
27357;SDS011;14831;50.474;7.616;2022-10-15T15:21:53;1.2;;;0.8;;
27357;SDS011;14831;50.474;7.616;2022-10-15T15:26:53;1.2;;;0.8;;
27357;SDS011;14831;50.474;7.616;2022-10-15T15:31:53;1.2;;;0.8;;
27357;SDS011;14831;50.474;7.616;2022-10-15T15:36:53;1.2;;;0.8;;
27357;SDS011;14831;50.474;7.616;2022-10-15T15:41:53;1.2;;;0.8;;
27357;SDS011;14831;50.474;7.616;2022-10-15T15:46:53;1.2;;;0.8;;
27357;SDS011;14831;50.474;7.616;2022-10-15T15:51:53;0.7;;;0.6;;
27357;SDS011;14831;50.474;7.616;2022-10-15T15:56:53;0.7;;;0.6;;
27357;SDS011;14831;50.474;7.616;2022-10-15T16:01:53;0.7;;;0.6;;
27357;SDS011;14831;50.474;7.616;2022-10-15T16:06:53;0.7;;;0.6;;
27357;SDS011;14831;50.474;7.616;2022-10-15T16:11:53;0.7;;;0.6;;
27357;SDS011;14831;50.474;7.616;2022-10-15T16:16:53;0.7;;;0.6;;
27357;SDS011;14831;50.474;7.616;2022-10-15T16:21:53;1.4;;;0.6;;
27357;SDS011;14831;50.474;7.616;2022-10-15T16:26:53;1.4;;;0.6;;
27357;SDS011;14831;50.474;7.616;2022-10-15T16:31:53;1.4;;;0.6;;
27357;SDS011;14831;50.474;7.616;2022-10-15T16:36:53;1.4;;;0.6;;
27357;SDS011;14831;50.474;7.616;2022-10-15T16:41:53;1.4;;;0.6;;
27357;SDS011;14831;50.474;7.616;2022-10-15T16:46:53;1.4;;;0.6;;
27357;SDS011;14831;50.474;7.616;2022-10-15T16:51:53;2.3;;;0.6;;
27357;SDS011;14831;50.474;7.616;2022-10-15T16:56:53;2.3;;;0.6;;
27357;SDS011;14831;50.474;7.616;2022-10-15T17:01:53;2.3;;;0.6;;
27357;SDS011;14831;50.474;7.616;2022-10-15T17:06:53;2.3;;;0.6;;
27357;SDS011;14831;50.474;7.616;2022-10-15T17:11:53;2.3;;;0.6;;
27357;SDS011;14831;50.474;7.616;2022-10-15T17:16:53;2.3;;;0.6;;
27357;SDS011;14831;50.474;7.616;2022-10-15T17:21:53;0.7;;;0.6;;
27357;SDS011;14831;50.474;7.616;2022-10-15T17:26:53;0.7;;;0.6;;
27357;SDS011;14831;50.474;7.616;2022-10-15T17:31:53;0.7;;;0.6;;
27357;SDS011;14831;50.474;7.616;2022-10-15T17:36:53;0.7;;;0.6;;
27357;SDS011;14831;50.474;7.616;2022-10-15T17:41:54;0.7;;;0.6;;
27357;SDS011;14831;50.474;7.616;2022-10-15T17:46:53;0.7;;;0.6;;
27357;SDS011;14831;50.474;7.616;2022-10-15T17:51:53;2.8;;;0.7;;
27357;SDS011;14831;50.474;7.616;2022-10-15T17:56:53;2.8;;;0.7;;
27357;SDS011;14831;50.474;7.616;2022-10-15T18:01:53;2.8;;;0.7;;
27357;SDS011;14831;50.474;7.616;2022-10-15T18:06:53;2.8;;;0.7;;
27357;SDS011;14831;50.474;7.616;2022-10-15T18:11:53;2.8;;;0.7;;
27357;SDS011;14831;50.474;7.616;2022-10-15T18:16:53;2.8;;;0.7;;
27357;SDS011;14831;50.474;7.616;2022-10-15T18:21:53;2.6;;;1.0;;
27357;SDS011;14831;50.474;7.616;2022-10-15T18:26:53;2.6;;;1.0;;
27357;SDS011;14831;50.474;7.616;2022-10-15T18:31:53;2.6;;;1.0;;
27357;SDS011;14831;50.474;7.616;2022-10-15T18:36:53;2.6;;;1.0;;
27357;SDS011;14831;50.474;7.616;2022-10-15T18:41:53;2.6;;;1.0;;
27357;SDS011;14831;50.474;7.616;2022-10-15T18:46:53;2.6;;;1.0;;
27357;SDS011;14831;50.474;7.616;2022-10-15T18:51:53;2.2;;;0.9;;
27357;SDS011;14831;50.474;7.616;2022-10-15T18:56:53;2.2;;;0.9;;
27357;SDS011;14831;50.474;7.616;2022-10-15T19:01:53;2.2;;;0.9;;
27357;SDS011;14831;50.474;7.616;2022-10-15T19:06:54;2.2;;;0.9;;
27357;SDS011;14831;50.474;7.616;2022-10-15T19:11:54;2.2;;;0.9;;
27357;SDS011;14831;50.474;7.616;2022-10-15T19:16:53;2.2;;;0.9;;
27357;SDS011;14831;50.474;7.616;2022-10-15T19:21:53;1.7;;;1.0;;
27357;SDS011;14831;50.474;7.616;2022-10-15T19:26:53;1.7;;;1.0;;
27357;SDS011;14831;50.474;7.616;2022-10-15T19:31:53;1.7;;;1.0;;
27357;SDS011;14831;50.474;7.616;2022-10-15T19:36:53;1.7;;;1.0;;
27357;SDS011;14831;50.474;7.616;2022-10-15T19:41:53;1.7;;;1.0;;
27357;SDS011;14831;50.474;7.616;2022-10-15T19:46:54;1.7;;;1.0;;
27357;SDS011;14831;50.474;7.616;2022-10-15T19:51:53;2.4;;;0.9;;
27357;SDS011;14831;50.474;7.616;2022-10-15T19:56:53;2.4;;;0.9;;
27357;SDS011;14831;50.474;7.616;2022-10-15T20:01:53;2.4;;;0.9;;
27357;SDS011;14831;50.474;7.616;2022-10-15T20:06:53;2.4;;;0.9;;
27357;SDS011;14831;50.474;7.616;2022-10-15T20:11:53;2.4;;;0.9;;
27357;SDS011;14831;50.474;7.616;2022-10-15T20:16:53;2.4;;;0.9;;
27357;SDS011;14831;50.474;7.616;2022-10-15T20:21:53;0.7;;;0.7;;
27357;SDS011;14831;50.474;7.616;2022-10-15T20:26:53;0.7;;;0.7;;
27357;SDS011;14831;50.474;7.616;2022-10-15T20:31:53;0.7;;;0.7;;
27357;SDS011;14831;50.474;7.616;2022-10-15T20:36:53;0.7;;;0.7;;
27357;SDS011;14831;50.474;7.616;2022-10-15T20:41:53;0.7;;;0.7;;
27357;SDS011;14831;50.474;7.616;2022-10-15T20:46:57;0.7;;;0.7;;
27357;SDS011;14831;50.474;7.616;2022-10-15T20:51:53;1.2;;;0.8;;
27357;SDS011;14831;50.474;7.616;2022-10-15T20:56:53;1.2;;;0.8;;
27357;SDS011;14831;50.474;7.616;2022-10-15T21:01:53;1.2;;;0.8;;
27357;SDS011;14831;50.474;7.616;2022-10-15T21:06:53;1.2;;;0.8;;
27357;SDS011;14831;50.474;7.616;2022-10-15T21:11:53;1.2;;;0.8;;
27357;SDS011;14831;50.474;7.616;2022-10-15T21:16:53;1.2;;;0.8;;
27357;SDS011;14831;50.474;7.616;2022-10-15T21:21:53;2.0;;;0.7;;
27357;SDS011;14831;50.474;7.616;2022-10-15T21:26:53;2.0;;;0.7;;
27357;SDS011;14831;50.474;7.616;2022-10-15T21:31:53;2.0;;;0.7;;
27357;SDS011;14831;50.474;7.616;2022-10-15T21:36:53;2.0;;;0.7;;
27357;SDS011;14831;50.474;7.616;2022-10-15T21:41:53;2.0;;;0.7;;
27357;SDS011;14831;50.474;7.616;2022-10-15T21:46:53;2.0;;;0.7;;
27357;SDS011;14831;50.474;7.616;2022-10-15T21:51:53;1.2;;;0.7;;
27357;SDS011;14831;50.474;7.616;2022-10-15T21:56:53;1.2;;;0.7;;
27357;SDS011;14831;50.474;7.616;2022-10-15T22:01:53;1.2;;;0.7;;
27357;SDS011;14831;50.474;7.616;2022-10-15T22:06:53;1.2;;;0.7;;
27357;SDS011;14831;50.474;7.616;2022-10-15T22:11:53;1.2;;;0.7;;
27357;SDS011;14831;50.474;7.616;2022-10-15T22:16:53;1.2;;;0.7;;
27357;SDS011;14831;50.474;7.616;2022-10-15T22:21:53;0.5;;;0.5;;
27357;SDS011;14831;50.474;7.616;2022-10-15T22:26:53;0.5;;;0.5;;
27357;SDS011;14831;50.474;7.616;2022-10-15T22:31:53;0.5;;;0.5;;
27357;SDS011;14831;50.474;7.616;2022-10-15T22:36:53;0.5;;;0.5;;
27357;SDS011;14831;50.474;7.616;2022-10-15T22:41:53;0.5;;;0.5;;
27357;SDS011;14831;50.474;7.616;2022-10-15T22:46:53;0.5;;;0.5;;
27357;SDS011;14831;50.474;7.616;2022-10-15T22:51:53;0.8;;;0.7;;
27357;SDS011;14831;50.474;7.616;2022-10-15T22:56:53;0.8;;;0.7;;
27357;SDS011;14831;50.474;7.616;2022-10-15T23:01:53;0.8;;;0.7;;
27357;SDS011;14831;50.474;7.616;2022-10-15T23:06:53;0.8;;;0.7;;
27357;SDS011;14831;50.474;7.616;2022-10-15T23:11:53;0.8;;;0.7;;
27357;SDS011;14831;50.474;7.616;2022-10-15T23:16:53;0.8;;;0.7;;
27357;SDS011;14831;50.474;7.616;2022-10-15T23:21:54;0.8;;;0.6;;
27357;SDS011;14831;50.474;7.616;2022-10-15T23:26:53;0.8;;;0.6;;
27357;SDS011;14831;50.474;7.616;2022-10-15T23:31:53;0.8;;;0.6;;
27357;SDS011;14831;50.474;7.616;2022-10-15T23:36:53;0.8;;;0.6;;
27357;SDS011;14831;50.474;7.616;2022-10-15T23:41:54;0.8;;;0.6;;
27357;SDS011;14831;50.474;7.616;2022-10-15T23:46:53;0.8;;;0.6;;
27357;SDS011;14831;50.474;7.616;2022-10-15T23:51:53;0.8;;;0.6;;
27357;SDS011;14831;50.474;7.616;2022-10-15T23:56:53;0.8;;;0.6;;
